Latest Weather Observations for Clermont Airport

IDQ60801

Issued at 5:32 pm EST Wednesday 26 April 2017 (issued every 30 minutes, with the page automatically refreshed every 10 minutes)

About weather observations | Map of weather stations | Latest weather observations for QLD | Other Formats
Station Details ID: 035124 Name: CLERMONT AIRPORT Lat: -22.78 Lon: 147.62 Height: 270.27 m
Data from the previous 72 hours. | See also: Recent months at Clermont Airport
Date/Time
EST
Temp
°C
App
Temp
°C
Dew
Point
°C
Rel
Hum
%
Delta-T
°C
Wind Press
QNH
hPa
Press
MSL
hPa
Rain since
9am
mm
Dir  Spd
km/h
Gust
km/h
Spd
kts
Gust
kts
26/05:30pm 28.4 28.4 13.5 40 9.0 NNW 6 7 3 4 1011.0 1009.7 0.0
26/05:00pm 30.4 30.2 13.7 36 10.1 NW 7 9 4 5 1010.8 1009.5 0.0
26/04:30pm 30.4 29.7 13.2 35 10.4 W 9 19 5 10 1010.9 1009.6 0.0
26/04:00pm 30.8 30.1 13.1 34 10.7 W 9 17 5 9 1011.0 1009.7 0.0
26/03:30pm 31.4 29.6 13.2 33 11.0 WNW 15 20 8 11 1011.1 1009.8 0.0
26/03:00pm 31.4 29.8 12.7 32 11.2 W 13 22 7 12 1011.3 1010.0 0.0
26/02:30pm 31.8 30.7 13.1 32 11.3 WSW 11 24 6 13 1011.6 1010.3 0.0
26/02:00pm 31.5 30.6 13.7 33 10.9 WNW 11 22 6 12 1012.0 1010.7 0.0
26/01:30pm 30.9 30.4 13.7 35 10.5 W 9 17 5 9 1012.3 1011.0 0.0
26/01:00pm 30.4 29.9 13.7 36 10.1 NW 9 15 5 8 1012.6 1011.4 0.0
26/12:30pm 29.7 29.0 14.3 39 9.4 NNW 11 20 6 11 1013.0 1011.8 0.0
26/12:00pm 29.0 28.7 15.5 44 8.4 NNW 11 19 6 10 1013.9 1012.7 0.0
26/11:30am 28.8 28.6 15.7 45 8.1 WNW 11 19 6 10 1014.6 1013.3 0.0
26/11:00am 28.0 28.5 16.6 50 7.2 NNW 9 19 5 10 1015.1 1013.8 0.0
26/10:30am 26.8 26.1 16.4 53 6.5 NNW 15 22 8 12 1015.6 1014.3 0.0
26/10:00am 26.2 25.1 16.4 54 6.1 NW 17 22 9 12 1015.8 1014.6 0.0
26/09:30am 25.4 24.9 16.0 56 5.8 NNW 13 22 7 12 1015.9 1014.7 0.0
26/09:00am 24.5 24.1 16.2 60 5.1 NNW 13 20 7 11 1016.1 1014.9 0.0
26/08:30am 23.0 22.9 17.0 69 3.7 NW 13 20 7 11 1016.0 1014.8 0.0
26/08:00am 20.4 21.2 16.4 78 2.4 NNW 7 9 4 5 1016.0 1014.8 0.0
26/07:30am 18.7 20.0 16.1 85 1.6 N 4 4 2 2 1016.0 1014.8 0.0
26/07:00am 15.0 15.3 13.4 90 0.9 N 4 6 2 3 1015.8 1014.6 0.0
26/06:30am 13.9 14.2 12.1 89 1.0 NNW 2 4 1 2 1015.6 1014.3 0.0
26/06:00am 14.1 14.7 12.0 87 1.1 CALM 0 0 0 0 1015.1 1013.8 0.0
26/05:30am 15.1 15.2 12.8 86 1.3 NW 4 6 2 3 1014.9 1013.6 0.0
26/05:00am 15.4 15.8 13.8 90 0.9 NNW 4 4 2 2 1014.7 1013.4 0.0
26/04:30am 15.3 15.6 12.2 82 1.7 N 2 4 1 2 1014.8 1013.5 0.0
26/04:00am 16.3 16.5 14.3 88 1.2 NNW 6 6 3 3 1014.9 1013.6 0.0
26/03:30am 15.4 16.3 12.9 85 1.4 CALM 0 0 0 0 1014.9 1013.6 0.0
26/03:00am 16.0 17.0 13.3 84 1.5 CALM 0 0 0 0 1015.0 1013.7 0.0
26/02:30am 16.7 18.0 14.2 85 1.4 CALM 0 0 0 0 1014.9 1013.6 0.0
26/02:00am 17.0 18.6 15.0 88 1.2 CALM 0 4 0 2 1015.2 1013.9 0.0
26/01:30am 15.0 15.3 12.1 83 1.6 WNW 2 6 1 3 1015.7 1014.4 0.0
26/01:00am 15.6 16.4 12.7 83 1.6 CALM 0 0 0 0 1015.7 1014.4 0.0
26/12:30am 15.8 16.6 12.7 82 1.7 CALM 0 0 0 0 1015.7 1014.4 0.0
26/12:00am 16.1 16.9 12.7 80 1.9 CALM 0 0 0 0 1015.7 1014.4 0.0
 
Date/Time
EST
Temp
°C
App
Temp
°C
Dew
Point
°C
Rel
Hum
%
Delta-T
°C
Wind Press
QNH
hPa
Press
MSL
hPa
Rain since
9am
mm
Dir  Spd
km/h
Gust
km/h
Spd
kts
Gust
kts
25/11:30pm 16.6 17.6 13.1 80 2.0 CALM 0 0 0 0 1015.7 1014.4 0.0
25/11:00pm 16.9 17.7 12.6 76 2.4 CALM 0 0 0 0 1016.0 1014.8 0.0
25/10:30pm 17.5 18.3 12.4 72 2.9 CALM 0 0 0 0 1016.2 1015.0 0.0
25/10:00pm 18.9 19.8 12.9 68 3.4 CALM 0 0 0 0 1016.5 1015.3 0.0
25/09:30pm 19.4 19.6 13.1 67 3.6 NNE 4 7 2 4 1016.5 1015.3 0.0
25/09:00pm 19.9 19.8 13.4 66 3.8 NNE 6 7 3 4 1016.5 1015.3 0.0
25/08:30pm 19.9 20.0 12.7 63 4.1 NNE 4 7 2 4 1016.3 1015.1 0.0
25/08:00pm 21.1 21.6 12.8 59 4.8 NNE 2 2 1 1 1016.1 1014.9 0.0
25/07:30pm 21.3 21.4 12.7 58 4.9 NNE 4 6 2 3 1015.9 1014.7 0.0
25/07:00pm 22.1 22.6 12.9 56 5.3 NNE 2 4 1 2 1015.5 1014.2 0.0
25/06:30pm 22.7 22.5 12.9 54 5.7 NNE 6 7 3 4 1015.3 1014.0 0.0
25/06:00pm 24.2 24.8 13.1 50 6.5 NE 2 6 1 3 1015.3 1014.0 0.0
25/05:30pm 27.1 27.8 13.4 42 8.2 ENE 2 6 1 3 1015.1 1013.8 0.0
25/05:00pm 28.0 27.6 13.1 39 8.9 NE 7 11 4 6 1014.5 1013.2 0.0
25/04:30pm 28.7 28.3 13.0 38 9.4 NNE 7 13 4 7 1014.2 1012.9 0.0
25/04:00pm 29.0 28.3 13.2 37 9.5 ENE 9 15 5 8 1014.2 1012.9 0.0
25/03:30pm 28.7 27.6 13.0 38 9.4 NE 11 17 6 9 1014.0 1012.8 0.0
25/03:00pm 29.9 30.3 13.6 36 9.9 ESE 4 9 2 5 1014.3 1013.0 0.0
25/02:30pm 28.8 28.1 13.1 38 9.4 SE 9 17 5 9 1014.6 1013.3 0.0
25/02:00pm 29.0 28.4 13.6 38 9.3 ESE 9 15 5 8 1014.9 1013.6 0.0
25/01:30pm 28.4 27.3 13.1 39 9.1 SSE 11 19 6 10 1015.3 1014.0 0.0
25/01:00pm 28.1 27.7 14.0 42 8.5 SSE 9 17 5 9 1015.9 1014.7 0.0
25/12:30pm 27.7 27.3 14.0 43 8.3 NE 9 17 5 9 1016.5 1015.3 0.0
25/12:00pm 27.7 28.8 15.7 48 7.4 SE 4 7 2 4 1017.0 1015.8 0.0
25/11:30am 27.2 27.5 14.6 46 7.7 ESE 6 13 3 7 1017.7 1016.5 0.0
25/11:00am 25.9 26.6 16.2 55 6.0 NE 7 15 4 8 1018.5 1017.2 0.0
25/10:30am 24.7 25.4 16.2 59 5.2 SE 7 15 4 8 1019.0 1017.7 0.0
25/10:00am 23.9 24.8 16.2 62 4.7 ENE 6 9 3 5 1019.6 1018.4 0.0
25/09:30am 23.0 23.8 16.3 66 4.1 ENE 7 11 4 6 1019.6 1018.4 0.0
25/09:00am 22.1 23.6 16.6 71 3.4 ESE 4 7 2 4 1019.2 1018.0 0.0
25/08:30am 19.9 20.5 15.3 75 2.7 SSE 6 7 3 4 1019.1 1017.9 0.0
25/08:00am 17.6 19.0 14.5 82 1.8 CALM 0 4 0 2 1019.1 1017.9 0.0
25/07:30am 15.6 16.1 14.0 90 0.9 SSW 4 6 2 3 1018.9 1017.6 0.0
25/07:00am 13.1 13.7 11.8 92 0.7 CALM 0 0 0 0 1018.6 1017.3 0.0
25/06:30am 12.5 12.9 11.2 92 0.7 CALM 0 0 0 0 1018.4 1017.1 0.0
25/06:00am 12.3 12.6 11.0 92 0.7 CALM 0 0 0 0 1017.6 1016.4 0.0
25/05:30am 12.6 13.0 11.2 91 0.7 CALM 0 0 0 0 1017.3 1016.1 0.0
25/05:00am 13.0 13.4 11.4 90 0.9 CALM 0 0 0 0 1017.0 1015.8 0.0
25/04:30am 13.2 13.8 11.9 92 0.7 CALM 0 0 0 0 1017.0 1015.8 0.0
25/04:00am 13.1 13.2 11.5 90 0.9 SSW 2 4 1 2 1017.0 1015.8 0.0
25/03:30am 13.4 13.5 11.6 89 1.0 SSW 2 4 1 2 1017.2 1016.0 0.0
25/03:00am 13.9 14.2 12.3 90 0.9 SSW 2 4 1 2 1017.2 1016.0 0.0
25/02:30am 13.8 13.2 11.7 87 1.1 SSW 6 6 3 3 1017.4 1016.2 0.0
25/02:00am 14.4 15.1 12.1 86 1.3 CALM 0 0 0 0 1017.5 1016.3 0.0
25/01:30am 15.0 15.8 12.7 86 1.3 CALM 0 0 0 0 1017.6 1016.4 0.0
25/01:00am 15.6 16.4 12.5 82 1.7 CALM 0 0 0 0 1018.1 1016.8 0.0
25/12:30am 16.3 16.5 13.0 81 1.9 NE 4 4 2 2 1018.2 1016.9 0.0
25/12:00am 16.7 16.9 13.2 80 2.0 NE 4 6 2 3 1018.4 1017.1 0.0
 
Date/Time
EST
Temp
°C
App
Temp
°C
Dew
Point
°C
Rel
Hum
%
Delta-T
°C
Wind Press
QNH
hPa
Press
MSL
hPa
Rain since
9am
mm
Dir  Spd
km/h
Gust
km/h
Spd
kts
Gust
kts
24/11:30pm 17.3 17.6 13.4 78 2.2 NNE 4 6 2 3 1018.6 1017.3 0.0
24/11:00pm 17.7 17.6 13.4 76 2.5 NNE 6 6 3 3 1018.9 1017.6 0.0
24/10:30pm 17.6 17.9 13.3 76 2.5 N 4 6 2 3 1018.9 1017.6 0.0
24/10:00pm 17.1 17.5 12.6 75 2.5 NNE 2 4 1 2 1019.0 1017.7 0.0
24/09:30pm 17.4 18.2 12.7 74 2.6 CALM 0 0 0 0 1019.1 1017.9 0.0
24/09:00pm 17.5 18.3 12.6 73 2.8 CALM 0 0 0 0 1018.8 1017.5 0.0
24/08:30pm 18.3 19.1 12.7 70 3.2 CALM 0 0 0 0 1018.9 1017.6 0.0
24/08:00pm 18.9 19.7 12.4 66 3.7 CALM 0 0 0 0 1018.5 1017.2 0.0
24/07:30pm 20.8 21.5 12.2 58 4.9 CALM 0 2 0 1 1018.3 1017.0 0.0
24/07:00pm 21.5 22.3 12.6 57 5.1 CALM 0 0 0 0 1017.7 1016.5 0.0
24/06:30pm 23.1 23.9 12.7 52 6.0 CALM 0 2 0 1 1017.6 1016.4 0.0
24/06:00pm 24.2 24.4 13.1 50 6.5 ENE 4 6 2 3 1017.3 1016.1 0.0
24/05:30pm 25.9 25.7 13.1 45 7.6 ENE 6 11 3 6 1017.1 1015.9 0.0
24/05:00pm 26.9 25.7 12.9 42 8.3 E 11 20 6 11 1016.8 1015.6 0.0
24/04:30pm 26.4 26.0 12.5 42 8.1 ESE 6 13 3 7 1016.7 1015.5 0.0
24/04:00pm 28.3 27.4 12.6 38 9.3 SE 9 19 5 10 1016.6 1015.4 0.0
24/03:30pm 28.4 27.5 12.7 38 9.3 ENE 9 13 5 7 1016.4 1015.2 0.0
24/03:00pm 28.0 27.3 13.1 39 8.9 ESE 9 19 5 10 1016.4 1015.2 0.0
24/02:30pm 27.7 27.0 13.3 41 8.6 ESE 9 20 5 11 1016.7 1015.5 0.0
24/02:00pm 27.1 25.5 12.7 41 8.5 ESE 13 19 7 10 1016.9 1015.7 0.0
24/01:30pm 28.4 28.2 14.6 43 8.4 E 9 19 5 10 1017.2 1016.0 0.0
24/01:00pm 26.7 25.7 14.5 47 7.4 ESE 13 20 7 11 1017.7 1016.5 0.0
24/12:30pm 26.8 26.5 14.5 46 7.5 SE 9 17 5 9 1018.3 1017.0 0.0
24/12:00pm 25.8 25.1 14.3 49 6.9 ESE 11 20 6 11 1018.7 1017.4 0.0
24/11:30am 26.6 26.4 15.6 50 6.8 E 11 22 6 12 1019.2 1018.0 0.0
24/11:00am 26.1 25.9 15.8 53 6.3 ENE 11 19 6 10 1019.8 1018.6 0.0
24/10:30am 24.7 24.8 15.6 57 5.6 E 9 17 5 9 1020.3 1019.1 0.0
24/10:00am 23.9 24.5 16.7 64 4.5 ESE 9 15 5 8 1020.7 1019.5 0.0
24/09:30am 22.7 23.5 16.3 67 3.9 ESE 7 13 4 7 1020.8 1019.6 0.0
24/09:00am 21.3 21.8 15.6 70 3.4 SE 7 13 4 7 1020.8 1019.6 0.0
24/08:30am 20.1 20.9 14.9 72 3.1 SSE 4 9 2 5 1020.7 1019.5 0.0
24/08:00am 18.1 19.1 14.2 78 2.3 SSE 2 6 1 3 1020.3 1019.1 0.0
24/07:30am 15.8 16.5 13.5 86 1.3 SSE 2 6 1 3 1020.0 1018.8 0.0
24/07:00am 13.0 13.5 11.7 92 0.7 CALM 0 0 0 0 1019.8 1018.6 0.0
24/06:30am 12.0 12.2 10.6 91 0.7 CALM 0 0 0 0 1019.6 1018.4 0.0
24/06:00am 12.1 12.0 10.7 91 0.7 WSW 2 2 1 1 1019.0 1017.7 0.0
24/05:30am 12.1 11.6 10.7 91 0.7 WSW 4 6 2 3 1018.8 1017.5 0.0
24/05:00am 12.4 12.7 11.0 91 0.7 CALM 0 0 0 0 1018.5 1017.2 0.0
24/04:30am 12.7 13.1 11.1 90 0.9 CALM 0 0 0 0 1018.5 1017.2 0.0
24/04:00am 12.9 13.3 11.3 90 0.9 CALM 0 0 0 0 1018.6 1017.3 0.0
24/03:30am 13.1 13.6 11.5 90 0.9 CALM 0 0 0 0 1018.9 1017.6 0.0
24/03:00am 13.4 13.9 11.6 89 1.0 CALM 0 0 0 0 1019.0 1017.7 0.0
24/02:30am 13.6 14.1 11.7 88 1.0 CALM 0 0 0 0 1019.1 1017.9 0.0
24/02:00am 14.0 14.6 12.0 88 1.1 CALM 0 0 0 0 1019.2 1018.0 0.0
24/01:30am 14.0 14.5 11.7 86 1.2 CALM 0 2 0 1 1019.3 1018.1 0.0
24/01:00am 14.2 14.0 11.9 86 1.3 WSW 4 6 2 3 1019.6 1018.4 0.0
24/12:30am 14.8 15.6 12.5 86 1.3 CALM 0 0 0 0 1019.6 1018.4 0.0
24/12:00am 14.9 15.7 12.4 85 1.4 CALM 0 0 0 0 1019.9 1018.7 0.0
 
Date/Time
EST
Temp
°C
App
Temp
°C
Dew
Point
°C
Rel
Hum
%
Delta-T
°C
Wind Press
QNH
hPa
Press
MSL
hPa
Rain since
9am
mm
Dir  Spd
km/h
Gust
km/h
Spd
kts
Gust
kts
23/11:30pm 15.4 16.3 12.9 85 1.4 CALM 0 0 0 0 1020.0 1018.8 0.0
23/11:00pm 15.8 16.6 12.7 82 1.7 CALM 0 0 0 0 1020.1 1018.9 0.0
23/10:30pm 16.2 17.1 12.9 81 1.9 CALM 0 0 0 0 1020.2 1019.0 0.0
23/10:00pm 16.6 17.5 12.9 79 2.1 CALM 0 0 0 0 1020.2 1019.0 0.0
23/09:30pm 18.0 19.0 13.1 73 2.8 CALM 0 0 0 0 1020.2 1019.0 0.0
23/09:00pm 18.5 19.5 13.1 71 3.1 CALM 0 0 0 0 1020.4 1019.2 0.0
23/08:30pm 18.7 19.5 12.7 68 3.4 CALM 0 0 0 0 1020.3 1019.1 0.0
23/08:00pm 20.4 21.2 12.6 61 4.4 CALM 0 0 0 0 1019.9 1018.7 0.0
23/07:30pm 21.3 21.7 12.4 57 5.1 E 2 4 1 2 1019.3 1018.1 0.0
23/07:00pm 22.5 23.0 12.7 54 5.7 E 2 6 1 3 1018.9 1017.6 0.0
23/06:30pm 23.1 23.7 13.0 53 5.9 E 2 4 1 2 1018.7 1017.4 0.0
23/06:00pm 24.3 24.5 13.2 50 6.5 ESE 4 6 2 3 1018.3 1017.0 0.0

Other Formats:

Comma delimited format used in spreadsheet applications
http://www.bom.gov.au/fwo/IDQ60801/IDQ60801.94395.axf

JavaScript Object Notation format (JSON) in row-major order
http://www.bom.gov.au/fwo/IDQ60801/IDQ60801.94395.json